createdAt,value
2023-03-24T00:01:19.017Z,3.22
2023-03-24T00:03:49.182Z,3.00
2023-03-24T00:06:18.911Z,2.85
2023-03-24T00:08:48.160Z,3.20
2023-03-24T00:11:19.060Z,2.85
2023-03-24T00:13:50.563Z,3.00
2023-03-24T00:16:21.780Z,2.67
2023-03-24T00:18:54.183Z,3.08
2023-03-24T00:21:24.632Z,3.13
2023-03-24T00:23:54.746Z,2.72
2023-03-24T00:26:25.213Z,2.95
2023-03-24T00:28:53.778Z,2.92
2023-03-24T00:31:22.405Z,3.15
2023-03-24T00:33:51.663Z,2.80
2023-03-24T00:36:20.975Z,3.08
2023-03-24T00:38:50.283Z,2.90
2023-03-24T00:41:20.081Z,2.90
2023-03-24T00:43:48.934Z,2.80
2023-03-24T00:46:27.685Z,3.20
2023-03-24T00:49:02.637Z,2.97
2023-03-24T00:51:32.860Z,3.10
2023-03-24T00:54:02.063Z,3.35
2023-03-24T00:56:33.298Z,3.10
2023-03-24T00:59:02.623Z,3.22
2023-03-24T01:01:33.166Z,3.17
2023-03-24T01:04:02.494Z,2.80
2023-03-24T01:06:30.224Z,3.33
2023-03-24T01:08:58.143Z,2.95
2023-03-24T01:11:27.355Z,3.35
2023-03-24T01:13:55.446Z,2.72
2023-03-24T01:16:25.879Z,3.33
2023-03-24T01:18:54.123Z,3.58
2023-03-24T01:21:25.427Z,2.72
2023-03-24T01:23:53.859Z,3.33
2023-03-24T01:26:21.897Z,2.92
2023-03-24T01:28:50.021Z,3.17
2023-03-24T01:31:18.115Z,3.28
2023-03-24T01:33:46.062Z,2.90
2023-03-24T01:36:13.972Z,2.83
2023-03-24T01:38:43.588Z,2.97
2023-03-24T01:41:11.632Z,2.85
2023-03-24T01:43:39.702Z,3.05
2023-03-24T01:46:19.244Z,2.70
2023-03-24T01:48:51.437Z,3.30
2023-03-24T01:51:22.538Z,2.70
2023-03-24T01:53:55.327Z,3.50
2023-03-24T01:56:23.752Z,3.10
2023-03-24T01:58:54.216Z,2.63
2023-03-24T02:01:29.939Z,2.90
2023-03-24T02:04:27.919Z,2.88
2023-03-24T02:07:09.132Z,2.83
2023-03-24T02:09:38.641Z,2.83
2023-03-24T02:12:06.824Z,3.20
2023-03-24T02:14:35.505Z,2.92
2023-03-24T02:17:19.967Z,3.00
2023-03-24T02:20:11.533Z,3.17
2023-03-24T02:23:05.176Z,2.75
2023-03-24T02:25:57.656Z,2.97
2023-03-24T02:28:33.145Z,3.05
2023-03-24T02:31:18.282Z,2.55
2023-03-24T02:34:21.963Z,2.65
2023-03-24T02:40:07.347Z,3.10
2023-03-24T02:45:14.027Z,2.47
2023-03-24T02:47:46.288Z,3.00
2023-03-24T02:50:20.524Z,2.70
2023-03-24T02:55:22.279Z,2.58
2023-03-24T02:57:53.671Z,2.88
2023-03-24T03:00:40.042Z,2.08
2023-03-24T03:03:10.986Z,1.60
2023-03-24T03:05:43.547Z,1.80
2023-03-24T03:08:13.948Z,1.83
2023-03-24T03:10:45.075Z,1.27
2023-03-24T03:13:17.647Z,1.30
2023-03-24T03:15:49.204Z,1.50
2023-03-24T03:18:19.710Z,1.70
2023-03-24T03:20:53.238Z,1.30
2023-03-24T03:23:25.652Z,1.50
2023-03-24T03:25:58.414Z,1.30
2023-03-24T03:28:30.047Z,1.40
2023-03-24T03:30:59.133Z,1.23
2023-03-24T03:33:32.564Z,1.50
2023-03-24T03:36:05.160Z,1.77
2023-03-24T03:38:38.356Z,1.40
2023-03-24T03:41:07.872Z,1.45
2023-03-24T03:43:38.101Z,1.50
2023-03-24T03:46:08.236Z,1.42
2023-03-24T03:48:39.155Z,1.38
2023-03-24T03:51:14.006Z,1.83
2023-03-24T03:53:51.802Z,1.85
2023-03-24T03:56:27.011Z,1.60
2023-03-24T03:59:33.966Z,1.70
2023-03-24T04:02:13.730Z,2.20
2023-03-24T04:05:06.571Z,1.98
2023-03-24T04:08:13.975Z,2.53
2023-03-24T04:11:38.425Z,2.03
2023-03-24T04:14:20.883Z,1.92
2023-03-24T04:19:47.871Z,1.85
2023-03-24T04:22:25.756Z,2.13
2023-03-24T04:25:12.901Z,2.45
2023-03-24T04:27:46.417Z,2.30
2023-03-24T04:30:18.964Z,2.60
2023-03-24T04:32:48.754Z,2.55
2023-03-24T04:35:32.141Z,2.70
2023-03-24T04:38:17.270Z,2.72
2023-03-24T04:40:50.807Z,2.50
2023-03-24T04:43:21.328Z,2.85
2023-03-24T04:45:50.862Z,2.28
2023-03-24T04:48:27.501Z,3.40
2023-03-24T04:51:14.055Z,2.50
2023-03-24T04:54:01.177Z,2.75
2023-03-24T04:56:41.483Z,2.88
2023-03-24T04:59:24.548Z,2.88
2023-03-24T05:01:53.750Z,3.00
2023-03-24T05:04:31.053Z,3.10
2023-03-24T05:07:09.581Z,2.78
2023-03-24T05:09:37.456Z,2.92
2023-03-24T05:12:05.391Z,3.35
2023-03-24T05:14:45.443Z,2.92
2023-03-24T05:17:14.674Z,3.72
2023-03-24T05:19:42.785Z,3.15
2023-03-24T05:22:10.941Z,3.28
2023-03-24T05:24:40.299Z,2.90
2023-03-24T05:27:08.439Z,4.00
2023-03-24T05:29:36.561Z,3.53
2023-03-24T05:32:04.639Z,3.20
2023-03-24T05:34:33.945Z,3.00
2023-03-24T05:37:12.170Z,3.03
2023-03-24T05:39:40.474Z,3.65
2023-03-24T05:42:14.250Z,3.80
2023-03-24T05:44:42.204Z,3.90
2023-03-24T05:47:20.383Z,3.22
2023-03-24T05:49:50.496Z,4.60
2023-03-24T05:52:20.578Z,3.83
2023-03-24T05:54:52.268Z,3.78
2023-03-24T05:57:23.937Z,3.30
2023-03-24T06:00:16.330Z,3.50
2023-03-24T06:03:05.955Z,3.67
2023-03-24T06:05:42.577Z,3.75
2023-03-24T06:08:11.095Z,4.00
2023-03-24T06:10:39.092Z,4.20
2023-03-24T06:13:09.278Z,4.10
2023-03-24T06:15:42.872Z,4.03
2023-03-24T06:18:32.218Z,4.13
2023-03-24T06:21:07.003Z,4.25
2023-03-24T06:23:35.777Z,3.63
2023-03-24T06:26:16.752Z,3.72
2023-03-24T06:28:53.000Z,4.43
2023-03-24T06:31:24.015Z,4.07
2023-03-24T06:33:53.667Z,4.47
2023-03-24T06:36:25.860Z,4.32
2023-03-24T06:38:54.617Z,3.35
2023-03-24T06:41:22.979Z,4.30
2023-03-24T06:43:55.689Z,3.92
2023-03-24T06:46:23.798Z,3.97
2023-03-24T06:48:52.614Z,4.03
2023-03-24T06:51:22.139Z,3.83
2023-03-24T06:53:51.577Z,3.63
2023-03-24T06:56:21.160Z,4.47
2023-03-24T06:58:54.604Z,3.67
2023-03-24T07:01:36.234Z,3.60
2023-03-24T07:04:26.163Z,4.35
2023-03-24T07:07:05.597Z,4.43
2023-03-24T07:09:45.851Z,3.35
2023-03-24T07:12:14.936Z,4.18
2023-03-24T07:14:43.968Z,3.72
2023-03-24T07:17:13.885Z,3.50
2023-03-24T07:20:09.648Z,3.28
2023-03-24T07:22:43.892Z,3.25
2023-03-24T07:25:28.596Z,3.70
2023-03-24T07:28:09.314Z,2.78
2023-03-24T07:30:40.881Z,3.58
2023-03-24T07:33:12.138Z,2.88
2023-03-24T07:35:42.095Z,3.08
2023-03-24T07:38:11.080Z,3.03
2023-03-24T07:40:40.758Z,3.60
2023-03-24T07:43:08.948Z,3.30
2023-03-24T07:45:57.003Z,3.15
2023-03-24T07:48:29.341Z,3.65
2023-03-24T07:50:57.262Z,3.65
2023-03-24T07:53:47.830Z,3.58
2023-03-24T07:56:28.582Z,3.25
2023-03-24T07:58:59.065Z,3.70
2023-03-24T08:01:32.066Z,3.55
2023-03-24T08:04:03.322Z,3.05
2023-03-24T08:06:50.398Z,3.25
2023-03-24T08:09:18.347Z,3.35
2023-03-24T08:11:47.998Z,3.20
2023-03-24T08:14:15.941Z,3.00
2023-03-24T08:16:46.650Z,2.92
2023-03-24T08:19:14.691Z,3.40
2023-03-24T08:21:42.493Z,3.60
2023-03-24T08:24:10.435Z,2.78
2023-03-24T08:26:38.524Z,3.03
2023-03-24T08:29:07.822Z,3.65
2023-03-24T08:31:38.090Z,3.83
2023-03-24T08:34:06.905Z,3.83
2023-03-24T08:36:34.981Z,4.28
2023-03-24T08:39:02.861Z,3.33
2023-03-24T08:41:35.022Z,3.33
2023-03-24T08:44:06.802Z,3.80
2023-03-24T08:46:36.547Z,3.97
2023-03-24T08:49:05.045Z,3.22
2023-03-24T08:51:33.389Z,3.72
2023-03-24T08:54:01.580Z,3.45
2023-03-24T08:56:29.677Z,3.50
2023-03-24T08:58:58.050Z,3.40
2023-03-24T09:01:26.165Z,3.58
2023-03-24T09:03:55.753Z,3.60
2023-03-24T09:06:23.692Z,3.13
2023-03-24T09:08:52.137Z,3.55
2023-03-24T09:11:21.452Z,3.80
2023-03-24T09:13:49.962Z,3.13
2023-03-24T09:16:18.272Z,3.67
2023-03-24T09:18:47.560Z,3.08
2023-03-24T09:21:17.502Z,3.17
2023-03-24T09:23:45.345Z,3.13
2023-03-24T09:26:13.109Z,3.63
2023-03-24T09:28:41.140Z,2.88
2023-03-24T09:31:08.963Z,3.08
2023-03-24T09:33:36.971Z,3.10
2023-03-24T09:36:05.635Z,2.78
2023-03-24T09:38:35.109Z,2.65
2023-03-24T09:41:04.865Z,3.00
2023-03-24T09:43:38.666Z,2.78
2023-03-24T09:48:39.567Z,2.85
2023-03-24T09:51:08.824Z,3.20
2023-03-24T09:53:41.851Z,2.83
2023-03-24T09:56:14.014Z,3.53
2023-03-24T09:58:42.394Z,2.95
2023-03-24T10:01:15.150Z,2.90
2023-03-24T10:03:43.929Z,2.60
2023-03-24T10:06:18.133Z,2.72
2023-03-24T10:08:52.310Z,2.75
2023-03-24T10:11:26.701Z,2.70
2023-03-24T10:14:04.371Z,2.90
2023-03-24T10:16:37.800Z,2.72
2023-03-24T10:19:15.174Z,2.40
2023-03-24T10:21:49.657Z,3.22
2023-03-24T10:24:23.772Z,2.50
2023-03-24T10:26:56.146Z,2.03
2023-03-24T10:29:27.401Z,2.47
2023-03-24T10:31:59.531Z,2.35
2023-03-24T10:34:29.654Z,2.50
2023-03-24T10:36:59.333Z,2.72
2023-03-24T10:39:42.090Z,2.80
2023-03-24T10:42:17.237Z,2.67
2023-03-24T10:44:45.853Z,3.42
2023-03-24T10:47:15.440Z,2.60
2023-03-24T10:49:54.810Z,2.90
2023-03-24T10:52:24.581Z,2.40
2023-03-24T10:54:58.824Z,3.00
2023-03-24T10:57:27.624Z,3.50
2023-03-24T10:59:57.541Z,2.92
2023-03-24T11:02:27.041Z,3.17
2023-03-24T11:04:57.956Z,2.65
2023-03-24T11:07:31.234Z,2.60
2023-03-24T11:10:02.998Z,2.83
2023-03-24T11:12:32.297Z,3.05
2023-03-24T11:15:21.109Z,2.55
2023-03-24T11:17:56.154Z,2.53
2023-03-24T11:20:28.501Z,2.78
2023-03-24T11:23:01.605Z,2.83
2023-03-24T11:25:34.384Z,2.22
2023-03-24T11:28:03.741Z,1.95
2023-03-24T11:30:35.549Z,1.70
2023-03-24T11:33:04.853Z,1.50
2023-03-24T11:35:41.714Z,2.08
2023-03-24T11:38:10.219Z,1.90
2023-03-24T11:40:39.458Z,1.58
2023-03-24T11:43:08.228Z,1.90
2023-03-24T11:45:39.328Z,1.90
2023-03-24T11:48:15.454Z,1.42
2023-03-24T11:50:43.722Z,1.52
2023-03-24T11:53:14.618Z,2.05
2023-03-24T11:55:48.419Z,1.83
2023-03-24T11:58:27.807Z,1.58
2023-03-24T12:00:58.805Z,2.20
2023-03-24T12:03:50.046Z,1.92
2023-03-24T12:06:30.883Z,2.55
2023-03-24T12:09:07.459Z,2.00
2023-03-24T12:11:46.419Z,2.58
2023-03-24T12:14:20.927Z,2.05
2023-03-24T12:16:54.033Z,2.00
2023-03-24T12:19:30.284Z,1.98
2023-03-24T12:22:03.968Z,1.85
2023-03-24T12:24:44.841Z,2.03
2023-03-24T12:27:20.966Z,1.92
2023-03-24T12:29:57.466Z,1.80
2023-03-24T12:32:35.308Z,1.52
2023-03-24T12:35:22.671Z,1.60
2023-03-24T12:37:53.934Z,2.38
2023-03-24T12:40:52.994Z,1.80
2023-03-24T12:43:30.767Z,2.00
2023-03-24T12:46:00.017Z,2.58
2023-03-24T12:48:43.675Z,1.60
2023-03-24T12:51:20.885Z,2.03
2023-03-24T12:53:57.245Z,2.22
2023-03-24T12:56:28.427Z,2.33
2023-03-24T12:59:00.177Z,1.70
2023-03-24T13:01:32.213Z,2.30
2023-03-24T13:04:05.671Z,2.30
2023-03-24T13:06:37.387Z,2.42
2023-03-24T13:09:15.481Z,1.98
2023-03-24T13:11:49.954Z,2.40
2023-03-24T13:14:24.230Z,2.22
2023-03-24T13:16:52.978Z,2.40
2023-03-24T13:19:22.707Z,3.20
2023-03-24T13:21:52.682Z,3.00
2023-03-24T13:24:21.019Z,3.35
2023-03-24T13:26:56.226Z,3.00
2023-03-24T13:29:49.428Z,2.83
2023-03-24T13:32:29.735Z,3.10
2023-03-24T13:35:01.860Z,2.10
2023-03-24T13:37:34.831Z,2.65
2023-03-24T13:40:07.865Z,2.22
2023-03-24T13:42:37.781Z,1.88
2023-03-24T13:45:09.361Z,2.05
2023-03-24T13:47:50.898Z,2.35
2023-03-24T13:50:19.085Z,2.20
2023-03-24T13:52:49.074Z,3.05
2023-03-24T13:55:22.012Z,3.15
2023-03-24T13:57:55.828Z,2.42
2023-03-24T14:00:26.415Z,2.45
2023-03-24T14:02:56.222Z,2.58
2023-03-24T14:05:42.875Z,2.00
2023-03-24T14:08:13.914Z,2.05
2023-03-24T14:10:44.037Z,1.77
2023-03-24T14:13:35.145Z,1.70
2023-03-24T14:16:44.199Z,1.60
2023-03-24T14:19:26.663Z,1.50
2023-03-24T14:22:14.349Z,1.80
2023-03-24T14:24:44.921Z,1.75
2023-03-24T14:27:32.273Z,2.35
2023-03-24T14:30:02.331Z,2.80
2023-03-24T14:32:31.624Z,2.00
2023-03-24T14:35:00.691Z,1.88
2023-03-24T14:37:29.893Z,1.48
2023-03-24T14:39:58.912Z,1.63
2023-03-24T14:42:55.444Z,2.03
2023-03-24T14:45:55.191Z,1.63
2023-03-24T14:48:33.046Z,0.90
2023-03-24T14:51:05.364Z,1.20
2023-03-24T14:53:37.166Z,1.00
2023-03-24T14:56:06.238Z,1.35
2023-03-24T14:58:38.951Z,1.00
2023-03-24T15:01:08.296Z,0.70
2023-03-24T15:03:42.858Z,0.93
2023-03-24T15:06:14.937Z,1.33
2023-03-24T15:08:47.092Z,2.25
2023-03-24T15:11:17.108Z,1.30
2023-03-24T15:13:46.108Z,1.25
2023-03-24T15:16:22.599Z,1.63
2023-03-24T15:21:27.980Z,1.40
2023-03-24T15:23:57.059Z,1.42
2023-03-24T15:26:26.656Z,1.38
2023-03-24T15:28:59.963Z,1.70
2023-03-24T15:31:30.385Z,7.20
2023-03-24T15:34:27.371Z,7.13
2023-03-24T15:36:56.518Z,5.07
2023-03-24T15:39:27.353Z,9.52
2023-03-24T15:41:55.347Z,2.13
2023-03-24T15:44:27.009Z,2.90
2023-03-24T15:46:56.707Z,4.70
2023-03-24T15:49:28.246Z,2.92
2023-03-24T15:51:59.504Z,4.28
2023-03-24T15:54:29.936Z,3.80
2023-03-24T15:57:03.084Z,4.25
2023-03-24T15:59:36.727Z,2.47
2023-03-24T16:02:06.672Z,9.60
2023-03-24T16:04:38.099Z,2.25
2023-03-24T16:07:05.967Z,3.88
2023-03-24T16:09:40.941Z,2.10
2023-03-24T16:12:11.736Z,2.92
2023-03-24T16:14:39.868Z,1.73
2023-03-24T16:17:08.080Z,4.15
2023-03-24T16:19:37.825Z,2.63
2023-03-24T16:22:10.514Z,4.00
2023-03-24T16:24:38.401Z,2.63
2023-03-24T16:27:06.392Z,2.00
2023-03-24T16:29:34.310Z,2.03
2023-03-24T16:32:02.162Z,2.17
2023-03-24T16:34:30.030Z,2.30
2023-03-24T16:36:59.316Z,2.08
2023-03-24T16:39:28.352Z,2.17
2023-03-24T16:41:56.699Z,1.92
2023-03-24T16:44:25.422Z,1.95
2023-03-24T16:46:54.904Z,1.73
2023-03-24T16:49:23.946Z,3.00
2023-03-24T16:51:52.773Z,5.82
2023-03-24T16:54:22.093Z,7.05
2023-03-24T16:56:49.970Z,4.00
2023-03-24T16:59:17.851Z,3.13
2023-03-24T17:01:47.458Z,2.60
2023-03-24T17:04:17.682Z,2.10
2023-03-24T17:06:49.065Z,3.10
2023-03-24T17:09:17.065Z,2.30
2023-03-24T17:11:50.068Z,2.33
2023-03-24T17:14:18.034Z,2.67
2023-03-24T17:16:49.225Z,2.25
2023-03-24T17:19:18.959Z,5.88
2023-03-24T17:21:50.249Z,3.92
2023-03-24T17:24:18.348Z,3.63
2023-03-24T17:26:48.853Z,3.58
2023-03-24T17:29:16.591Z,3.85
2023-03-24T17:31:44.642Z,3.38
2023-03-24T17:34:21.635Z,3.50
2023-03-24T17:36:51.252Z,2.88
2023-03-24T17:39:20.080Z,4.82
2023-03-24T17:41:49.849Z,3.30
2023-03-24T17:44:17.718Z,2.90
2023-03-24T17:46:45.984Z,2.20
2023-03-24T17:49:13.733Z,2.42
2023-03-24T17:51:41.500Z,2.97
2023-03-24T17:54:10.554Z,2.58
2023-03-24T17:56:38.601Z,7.88
2023-03-24T17:59:08.177Z,10.73
2023-03-24T18:01:39.530Z,13.18
2023-03-24T18:04:08.148Z,4.88
2023-03-24T18:06:38.528Z,4.32
2023-03-24T18:09:07.534Z,5.32
2023-03-24T18:11:35.928Z,8.93
2023-03-24T18:14:04.036Z,6.45
2023-03-24T18:16:35.505Z,10.43
2023-03-24T18:19:03.853Z,4.15
2023-03-24T18:21:34.756Z,4.30
2023-03-24T18:24:02.655Z,3.75
2023-03-24T18:26:30.782Z,3.10
2023-03-24T18:28:58.789Z,3.47
2023-03-24T18:31:27.302Z,2.85
2023-03-24T18:33:57.041Z,4.30
2023-03-24T18:36:27.212Z,3.08
2023-03-24T18:38:59.014Z,2.17
2023-03-24T18:41:28.452Z,2.28
2023-03-24T18:43:58.041Z,2.60
2023-03-24T18:46:27.319Z,2.60
2023-03-24T18:48:58.567Z,2.53
2023-03-24T18:51:27.277Z,2.35
2023-03-24T18:53:58.011Z,2.25
2023-03-24T18:56:26.427Z,2.55
2023-03-24T18:58:54.313Z,2.58
2023-03-24T19:01:25.362Z,1.85
2023-03-24T19:03:53.834Z,3.08
2023-03-24T19:06:26.220Z,1.90
2023-03-24T19:08:54.275Z,2.08
2023-03-24T19:11:22.069Z,2.00
2023-03-24T19:13:51.847Z,1.90
2023-03-24T19:16:21.259Z,1.75
2023-03-24T19:18:50.650Z,1.92
2023-03-24T19:21:18.948Z,2.40
2023-03-24T19:23:49.941Z,2.30
2023-03-24T19:26:20.779Z,2.30
2023-03-24T19:28:50.225Z,2.20
2023-03-24T19:31:19.583Z,1.65
2023-03-24T19:33:47.907Z,2.42
2023-03-24T19:36:16.425Z,2.63
2023-03-24T19:38:44.369Z,2.53
2023-03-24T19:41:15.526Z,1.77
2023-03-24T19:43:43.799Z,2.05
2023-03-24T19:46:11.685Z,2.10
2023-03-24T19:48:39.650Z,2.10
2023-03-24T19:51:11.403Z,2.00
2023-03-24T19:53:41.625Z,2.10
2023-03-24T19:56:13.746Z,2.10
2023-03-24T19:58:46.087Z,2.13
2023-03-24T20:01:14.150Z,2.25
2023-03-24T20:03:42.128Z,2.50
2023-03-24T20:06:10.819Z,2.13
2023-03-24T20:08:39.653Z,2.00
2023-03-24T20:11:08.705Z,1.90
2023-03-24T20:13:36.694Z,1.83
2023-03-24T20:16:06.699Z,1.98
2023-03-24T20:18:35.826Z,2.30
2023-03-24T20:21:06.269Z,2.20
2023-03-24T20:23:34.211Z,2.10
2023-03-24T20:26:02.505Z,2.00
2023-03-24T20:28:30.582Z,2.53
2023-03-24T20:31:02.076Z,2.42
2023-03-24T20:33:31.699Z,2.10
2023-03-24T20:36:00.134Z,1.92
2023-03-24T20:38:28.133Z,2.20
2023-03-24T20:41:00.126Z,2.35
2023-03-24T20:43:28.704Z,2.20
2023-03-24T20:45:57.005Z,2.13
2023-03-24T20:48:25.062Z,2.00
2023-03-24T20:50:54.752Z,2.35
2023-03-24T20:53:22.568Z,2.28
2023-03-24T20:55:57.837Z,2.67
2023-03-24T20:58:27.494Z,2.30
2023-03-24T21:00:56.044Z,2.33
2023-03-24T21:03:24.253Z,2.50
2023-03-24T21:05:52.622Z,2.15
2023-03-24T21:08:21.917Z,2.15
2023-03-24T21:10:49.922Z,2.10
2023-03-24T21:13:17.753Z,2.30
2023-03-24T21:15:46.263Z,2.28
2023-03-24T21:18:14.374Z,2.08
2023-03-24T21:20:47.336Z,2.10
2023-03-24T21:23:18.556Z,2.08
2023-03-24T21:25:48.386Z,1.95
2023-03-24T21:28:17.896Z,2.05
2023-03-24T21:30:46.271Z,2.17
2023-03-24T21:33:15.750Z,1.92
2023-03-24T21:35:43.694Z,1.90
2023-03-24T21:38:11.878Z,2.28
2023-03-24T21:40:39.842Z,1.95
2023-03-24T21:43:09.411Z,1.90
2023-03-24T21:45:37.920Z,2.22
2023-03-24T21:48:07.217Z,2.08
2023-03-24T21:50:38.860Z,1.73
2023-03-24T21:53:14.782Z,2.13
2023-03-24T21:55:43.408Z,1.77
2023-03-24T21:58:12.728Z,2.20
2023-03-24T22:00:41.210Z,1.65
2023-03-24T22:03:09.506Z,1.88
2023-03-24T22:05:39.364Z,1.70
2023-03-24T22:08:07.532Z,1.90
2023-03-24T22:10:37.041Z,2.10
2023-03-24T22:13:05.367Z,1.92
2023-03-24T22:15:35.602Z,1.67
2023-03-24T22:18:05.215Z,1.65
2023-03-24T22:20:33.567Z,2.08
2023-03-24T22:23:03.502Z,1.98
2023-03-24T22:25:32.157Z,1.67
2023-03-24T22:28:00.640Z,2.70
2023-03-24T22:30:28.435Z,1.75
2023-03-24T22:32:57.627Z,2.15
2023-03-24T22:35:25.568Z,1.77
2023-03-24T22:37:53.856Z,2.20
2023-03-24T22:40:21.797Z,1.95
2023-03-24T22:42:49.767Z,2.25
2023-03-24T22:45:17.646Z,2.28
2023-03-24T22:47:45.583Z,2.00
2023-03-24T22:50:14.875Z,2.10
2023-03-24T22:52:42.743Z,1.88
2023-03-24T22:55:11.094Z,2.22
2023-03-24T22:57:38.965Z,1.92
2023-03-24T23:00:08.282Z,2.10
2023-03-24T23:02:36.255Z,2.80
2023-03-24T23:05:04.386Z,2.20
2023-03-24T23:07:34.885Z,2.00
2023-03-24T23:10:06.533Z,2.63
2023-03-24T23:12:34.594Z,2.30
2023-03-24T23:15:02.354Z,1.85
2023-03-24T23:17:30.576Z,2.00
2023-03-24T23:19:58.635Z,2.72
2023-03-24T23:22:26.493Z,1.90
2023-03-24T23:25:01.885Z,2.00
2023-03-24T23:27:34.784Z,2.10
2023-03-24T23:30:02.795Z,1.90
2023-03-24T23:32:33.412Z,2.70
2023-03-24T23:35:02.939Z,1.90
2023-03-24T23:37:32.155Z,2.15
2023-03-24T23:40:06.693Z,2.25
2023-03-24T23:42:34.936Z,2.10
2023-03-24T23:45:02.951Z,2.17
2023-03-24T23:47:32.663Z,2.22
2023-03-24T23:50:00.935Z,1.83
2023-03-24T23:52:29.664Z,1.80
2023-03-24T23:54:58.523Z,2.05
2023-03-24T23:57:27.916Z,2.38
2023-03-24T23:59:55.719Z,2.50
